createdAt,value
2023-03-17T00:00:00.418Z,2.35
2023-03-17T00:01:00.401Z,2.45
2023-03-17T00:02:00.418Z,2.42
2023-03-17T00:03:00.433Z,2.45
2023-03-17T00:04:00.407Z,2.46
2023-03-17T00:05:00.340Z,2.42
2023-03-17T00:06:00.337Z,2.52
2023-03-17T00:07:00.322Z,2.46
2023-03-17T00:08:00.351Z,2.49
2023-03-17T00:09:00.345Z,2.46
2023-03-17T00:10:00.294Z,2.49
2023-03-17T00:11:00.277Z,2.52
2023-03-17T00:12:00.274Z,2.46
2023-03-17T00:13:00.269Z,2.54
2023-03-17T00:14:00.294Z,2.52
2023-03-17T00:15:00.288Z,2.60
2023-03-17T00:16:00.300Z,2.57
2023-03-17T00:17:00.211Z,2.57
2023-03-17T00:18:00.217Z,2.54
2023-03-17T00:19:00.194Z,2.48
2023-03-17T00:20:00.211Z,2.43
2023-03-17T00:21:00.211Z,2.52
2023-03-17T00:22:00.228Z,2.43
2023-03-17T00:23:00.141Z,2.41
2023-03-17T00:24:00.125Z,2.41
2023-03-17T00:25:00.140Z,2.39
2023-03-17T00:26:00.120Z,2.38
2023-03-17T00:27:00.156Z,2.41
2023-03-17T00:28:00.107Z,2.34
2023-03-17T00:29:00.098Z,2.30
2023-03-17T00:30:00.139Z,2.39
2023-03-17T00:31:00.142Z,2.35
2023-03-17T00:32:00.045Z,2.30
2023-03-17T00:33:00.130Z,2.30
2023-03-17T00:34:00.022Z,2.41
2023-03-17T00:35:00.031Z,2.45
2023-03-17T00:36:00.058Z,2.42
2023-03-17T00:37:00.000Z,2.46
2023-03-17T00:38:00.023Z,2.43
2023-03-17T00:38:59.983Z,2.42
2023-03-17T00:39:59.954Z,2.56
2023-03-17T00:40:59.936Z,2.45
2023-03-17T00:41:59.947Z,2.46
2023-03-17T00:42:59.955Z,2.45
2023-03-17T00:43:59.902Z,2.41
2023-03-17T00:44:59.952Z,2.43
2023-03-17T00:45:59.918Z,2.48
2023-03-17T00:46:59.998Z,2.49
2023-03-17T00:47:59.881Z,2.43
2023-03-17T00:48:59.939Z,2.39
2023-03-17T00:49:59.833Z,2.42
2023-03-17T00:50:59.862Z,2.36
2023-03-17T00:51:59.843Z,2.36
2023-03-17T00:53:00.596Z,2.31
2023-03-17T00:53:59.808Z,2.31
2023-03-17T00:54:59.775Z,2.20
2023-03-17T00:55:59.767Z,2.17
2023-03-17T00:56:59.835Z,2.27
2023-03-17T00:57:59.750Z,2.21
2023-03-17T00:58:59.740Z,2.34
2023-03-17T00:59:59.757Z,2.38
2023-03-17T01:00:59.792Z,2.39
2023-03-17T01:01:59.817Z,2.28
2023-03-17T01:02:59.739Z,2.34
2023-03-17T01:03:59.715Z,2.31
2023-03-17T01:05:05.984Z,2.30
2023-03-17T01:06:00.661Z,2.31
2023-03-17T01:06:59.662Z,2.27
2023-03-17T01:07:59.634Z,2.30
2023-03-17T01:08:59.685Z,2.34
2023-03-17T01:09:59.621Z,2.35
2023-03-17T01:10:59.628Z,2.28
2023-03-17T01:11:59.586Z,2.31
2023-03-17T01:12:59.581Z,2.35
2023-03-17T01:13:59.571Z,2.30
2023-03-17T01:14:59.575Z,2.34
2023-03-17T01:15:59.649Z,2.31
2023-03-17T01:16:59.529Z,2.43
2023-03-17T01:17:59.549Z,2.31
2023-03-17T01:18:59.550Z,2.42
2023-03-17T01:19:59.508Z,2.41
2023-03-17T01:20:59.558Z,2.42
2023-03-17T01:21:59.530Z,2.43
2023-03-17T01:22:59.460Z,2.45
2023-03-17T01:23:59.458Z,2.42
2023-03-17T01:24:59.440Z,2.34
2023-03-17T01:25:59.436Z,2.42
2023-03-17T01:26:59.492Z,2.36
2023-03-17T01:27:59.408Z,2.36
2023-03-17T01:28:59.397Z,2.36
2023-03-17T01:29:59.387Z,2.36
2023-03-17T01:30:59.415Z,2.31
2023-03-17T01:31:59.447Z,2.31
2023-03-17T01:32:59.467Z,2.28
2023-03-17T01:33:59.364Z,2.23
2023-03-17T01:34:59.378Z,2.28
2023-03-17T01:35:59.368Z,2.25
2023-03-17T01:36:59.306Z,2.28
2023-03-17T01:37:59.304Z,2.27
2023-03-17T01:38:59.345Z,2.28
2023-03-17T01:39:59.318Z,2.28
2023-03-17T01:40:59.294Z,2.30
2023-03-17T01:41:59.318Z,2.34
2023-03-17T01:42:59.279Z,2.36
2023-03-17T01:43:59.246Z,2.34
2023-03-17T01:44:59.282Z,2.21
2023-03-17T01:45:59.269Z,2.30
2023-03-17T01:46:59.199Z,2.17
2023-03-17T01:47:59.227Z,2.18
2023-03-17T01:48:59.194Z,2.17
2023-03-17T01:49:59.188Z,2.14
2023-03-17T01:50:59.154Z,2.07
2023-03-17T01:51:59.139Z,2.00
2023-03-17T01:52:59.131Z,2.05
2023-03-17T01:53:59.142Z,2.12
2023-03-17T01:54:59.149Z,2.06
2023-03-17T01:55:59.114Z,2.14
2023-03-17T01:56:59.120Z,2.09
2023-03-17T01:57:59.070Z,2.12
2023-03-17T01:58:59.065Z,2.06
2023-03-17T01:59:59.087Z,2.02
2023-03-17T02:00:59.049Z,1.98
2023-03-17T02:01:59.065Z,1.99
2023-03-17T02:02:59.025Z,1.99
2023-03-17T02:03:59.087Z,2.05
2023-03-17T02:04:59.027Z,2.06
2023-03-17T02:05:59.010Z,2.07
2023-03-17T02:06:59.208Z,1.93
2023-03-17T02:07:59.003Z,1.98
2023-03-17T02:08:58.948Z,2.00
2023-03-17T02:09:58.935Z,1.98
2023-03-17T02:10:58.949Z,1.99
2023-03-17T02:11:58.925Z,2.03
2023-03-17T02:12:58.898Z,2.00
2023-03-17T02:13:58.932Z,2.14
2023-03-17T02:14:58.884Z,2.12
2023-03-17T02:15:58.882Z,2.02
2023-03-17T02:16:58.995Z,2.00
2023-03-17T02:17:58.899Z,2.03
2023-03-17T02:18:58.870Z,2.12
2023-03-17T02:19:58.822Z,2.03
2023-03-17T02:20:58.807Z,2.12
2023-03-17T02:21:58.845Z,2.07
2023-03-17T02:22:58.803Z,2.06
2023-03-17T02:23:58.812Z,1.99
2023-03-17T02:24:58.764Z,2.02
2023-03-17T02:25:58.753Z,1.98
2023-03-17T02:26:58.746Z,1.88
2023-03-17T02:27:58.742Z,1.95
2023-03-17T02:28:58.762Z,1.98
2023-03-17T02:29:58.712Z,1.86
2023-03-17T02:30:58.728Z,1.91
2023-03-17T02:31:58.688Z,1.84
2023-03-17T02:32:58.778Z,1.95
2023-03-17T02:33:58.668Z,1.95
2023-03-17T02:34:58.687Z,1.91
2023-03-17T02:35:58.685Z,1.87
2023-03-17T02:36:58.687Z,1.83
2023-03-17T02:37:58.645Z,1.73
2023-03-17T02:38:58.634Z,1.80
2023-03-17T02:39:58.633Z,1.79
2023-03-17T02:40:58.613Z,1.72
2023-03-17T02:41:58.585Z,1.73
2023-03-17T02:42:58.579Z,1.69
2023-03-17T02:43:58.563Z,1.77
2023-03-17T02:44:58.690Z,1.77
2023-03-17T02:45:58.596Z,1.70
2023-03-17T02:46:58.520Z,1.65
2023-03-17T02:47:58.510Z,1.66
2023-03-17T02:48:58.500Z,1.68
2023-03-17T02:49:58.509Z,1.65
2023-03-17T02:50:58.524Z,1.65
2023-03-17T02:51:58.492Z,1.62
2023-03-17T02:52:58.479Z,1.60
2023-03-17T02:53:58.464Z,1.58
2023-03-17T02:54:58.468Z,1.68
2023-03-17T02:56:07.188Z,1.68
2023-03-17T02:56:58.430Z,1.65
2023-03-17T02:57:58.543Z,1.63
2023-03-17T02:58:58.433Z,1.69
2023-03-17T02:59:58.411Z,1.68
2023-03-17T03:00:58.445Z,1.59
2023-03-17T03:01:58.402Z,1.60
2023-03-17T03:02:58.467Z,1.58
2023-03-17T03:03:58.378Z,1.63
2023-03-17T03:04:58.412Z,1.62
2023-03-17T03:05:58.324Z,1.63
2023-03-17T03:06:58.364Z,1.55
2023-03-17T03:07:58.302Z,1.60
2023-03-17T03:08:58.393Z,1.62
2023-03-17T03:09:58.334Z,1.66
2023-03-17T03:10:58.316Z,1.62
2023-03-17T03:11:58.264Z,1.68
2023-03-17T03:12:58.277Z,1.66
2023-03-17T03:13:58.262Z,1.65
2023-03-17T03:14:58.233Z,1.65
2023-03-17T03:15:58.335Z,1.69
2023-03-17T03:16:58.203Z,1.68
2023-03-17T03:17:58.182Z,1.73
2023-03-17T03:18:58.179Z,1.77
2023-03-17T03:19:58.173Z,1.66
2023-03-17T03:20:58.183Z,1.70
2023-03-17T03:21:58.186Z,1.72
2023-03-17T03:22:58.193Z,1.77
2023-03-17T03:23:58.170Z,1.72
2023-03-17T03:24:58.171Z,1.65
2023-03-17T03:25:58.108Z,1.76
2023-03-17T03:26:58.129Z,1.73
2023-03-17T03:27:58.091Z,1.72
2023-03-17T03:28:58.075Z,1.72
2023-03-17T03:29:58.109Z,1.70
2023-03-17T03:30:58.091Z,1.76
2023-03-17T03:31:58.055Z,1.66
2023-03-17T03:32:58.133Z,1.62
2023-03-17T03:33:58.070Z,1.52
2023-03-17T03:34:58.046Z,1.30
2023-03-17T03:35:58.076Z,1.23
2023-03-17T03:36:57.985Z,1.12
2023-03-17T03:37:57.970Z,1.04
2023-03-17T03:38:58.003Z,0.96
2023-03-17T03:39:57.978Z,0.88
2023-03-17T03:40:58.134Z,0.90
2023-03-17T03:41:57.944Z,0.76
2023-03-17T03:42:57.933Z,0.76
2023-03-17T03:43:57.934Z,0.78
2023-03-17T03:44:57.903Z,0.72
2023-03-17T03:45:57.904Z,0.66
2023-03-17T03:46:57.911Z,0.46
2023-03-17T03:47:57.856Z,0.49
2023-03-17T03:48:57.865Z,0.51
2023-03-17T03:49:57.862Z,0.46
2023-03-17T03:50:57.881Z,0.35
2023-03-17T03:51:57.789Z,0.46
2023-03-17T03:52:57.815Z,0.41
2023-03-17T03:53:58.229Z,0.36
2023-03-17T03:54:57.770Z,0.41
2023-03-17T03:55:57.773Z,0.35
2023-03-17T03:56:57.775Z,0.38
2023-03-17T03:57:57.741Z,0.31
2023-03-17T03:58:57.733Z,0.42
2023-03-17T03:59:57.744Z,0.31
2023-03-17T04:00:57.746Z,0.41
2023-03-17T04:01:57.707Z,0.38
2023-03-17T04:02:57.736Z,0.38
2023-03-17T04:03:57.656Z,0.38
2023-03-17T04:04:57.742Z,0.39
2023-03-17T04:05:57.678Z,0.41
2023-03-17T04:06:57.663Z,0.36
2023-03-17T04:07:57.656Z,0.41
2023-03-17T04:08:58.477Z,0.33
2023-03-17T04:09:57.596Z,0.41
2023-03-17T04:10:57.614Z,0.38
2023-03-17T04:11:57.574Z,0.41
2023-03-17T04:12:57.577Z,0.38
2023-03-17T04:13:57.606Z,0.42
2023-03-17T04:14:57.599Z,0.50
2023-03-17T04:15:57.563Z,0.50
2023-03-17T04:16:57.543Z,0.57
2023-03-17T04:17:57.516Z,0.57
2023-03-17T04:18:57.582Z,0.65
2023-03-17T04:19:57.576Z,0.62
2023-03-17T04:20:57.538Z,0.62
2023-03-17T04:21:57.469Z,0.70
2023-03-17T04:22:57.472Z,0.70
2023-03-17T04:23:57.450Z,0.66
2023-03-17T04:24:57.495Z,0.69
2023-03-17T04:25:57.407Z,0.78
2023-03-17T04:26:57.478Z,0.70
2023-03-17T04:27:57.438Z,0.76
2023-03-17T04:28:57.439Z,0.84
2023-03-17T04:29:57.410Z,0.78
2023-03-17T04:30:57.428Z,0.87
2023-03-17T04:31:57.445Z,0.79
2023-03-17T04:32:57.761Z,0.76
2023-03-17T04:33:58.340Z,0.79
2023-03-17T04:34:57.362Z,0.79
2023-03-17T04:35:57.347Z,0.68
2023-03-17T04:36:57.289Z,0.66
2023-03-17T04:37:57.347Z,0.61
2023-03-17T04:38:57.300Z,0.53
2023-03-17T04:39:57.296Z,0.55
2023-03-17T04:40:57.288Z,0.46
2023-03-17T04:41:57.261Z,0.42
2023-03-17T04:42:57.270Z,0.44
2023-03-17T04:43:57.277Z,0.46
2023-03-17T04:44:57.229Z,0.50
2023-03-17T04:45:57.344Z,0.51
2023-03-17T04:46:57.207Z,0.62
2023-03-17T04:47:57.202Z,0.65
2023-03-17T04:48:57.220Z,0.62
2023-03-17T04:49:57.158Z,0.68
2023-03-17T04:50:57.178Z,0.58
2023-03-17T04:51:57.140Z,0.61
2023-03-17T04:52:57.133Z,0.57
2023-03-17T04:53:57.153Z,0.65
2023-03-17T04:54:57.108Z,0.66
2023-03-17T04:55:57.100Z,0.66
2023-03-17T04:56:57.689Z,0.66
2023-03-17T04:57:57.079Z,0.69
2023-03-17T04:58:57.085Z,0.70
2023-03-17T04:59:57.118Z,0.72
2023-03-17T05:00:57.184Z,0.72
2023-03-17T05:01:57.140Z,0.72
2023-03-17T05:02:57.006Z,0.68
2023-03-17T05:03:57.023Z,0.66
2023-03-17T05:04:57.015Z,0.68
2023-03-17T05:05:56.979Z,0.66
2023-03-17T05:06:56.974Z,0.60
2023-03-17T05:07:57.753Z,0.68
2023-03-17T05:08:57.063Z,0.72
2023-03-17T05:09:56.951Z,0.78
2023-03-17T05:10:56.976Z,0.69
2023-03-17T05:11:56.906Z,0.76
2023-03-17T05:12:56.916Z,0.70
2023-03-17T05:13:57.299Z,0.72
2023-03-17T05:14:56.888Z,0.70
2023-03-17T05:15:56.902Z,0.69
2023-03-17T05:16:56.881Z,0.83
2023-03-17T05:17:56.874Z,0.79
2023-03-17T05:18:56.865Z,0.80
2023-03-17T05:19:57.686Z,0.83
2023-03-17T05:20:57.513Z,0.86
2023-03-17T05:21:56.852Z,0.90
2023-03-17T05:22:56.966Z,0.87
2023-03-17T05:23:58.697Z,0.79
2023-03-17T05:24:56.948Z,0.76
2023-03-17T05:25:56.815Z,0.72
2023-03-17T05:26:56.770Z,0.75
2023-03-17T05:27:56.713Z,0.73
2023-03-17T05:28:56.712Z,0.72
2023-03-17T05:29:57.260Z,0.65
2023-03-17T05:30:56.728Z,0.61
2023-03-17T05:31:56.694Z,0.61
2023-03-17T05:32:56.739Z,0.57
2023-03-17T05:33:56.750Z,0.42
2023-03-17T05:34:56.660Z,0.38
2023-03-17T05:35:56.701Z,0.42
2023-03-17T05:36:56.675Z,0.50
2023-03-17T05:37:56.633Z,0.50
2023-03-17T05:38:56.648Z,0.55
2023-03-17T05:39:56.592Z,0.50
2023-03-17T05:40:56.748Z,0.57
2023-03-17T05:41:56.625Z,0.55
2023-03-17T05:42:56.613Z,0.60
2023-03-17T05:43:56.562Z,0.62
2023-03-17T05:44:56.530Z,0.70
2023-03-17T05:45:56.581Z,0.68
2023-03-17T05:46:56.529Z,0.76
2023-03-17T05:47:56.498Z,0.83
2023-03-17T05:48:56.551Z,0.83
2023-03-17T05:49:56.485Z,0.91
2023-03-17T05:50:56.463Z,0.88
2023-03-17T05:51:56.627Z,0.97
2023-03-17T05:52:56.433Z,0.97
2023-03-17T05:53:56.449Z,1.06
2023-03-17T05:54:56.435Z,1.02
2023-03-17T05:55:56.453Z,1.22
2023-03-17T05:56:56.395Z,1.14
2023-03-17T05:57:58.214Z,1.23
2023-03-17T05:58:56.430Z,1.34
2023-03-17T05:59:56.378Z,1.33
2023-03-17T06:00:56.393Z,1.30
2023-03-17T06:01:56.352Z,1.37
2023-03-17T06:02:56.331Z,1.44
2023-03-17T06:03:56.532Z,1.48
2023-03-17T06:04:56.311Z,1.44
2023-03-17T06:05:56.339Z,1.44
2023-03-17T06:06:56.332Z,1.55
2023-03-17T06:07:56.714Z,1.58
2023-03-17T06:08:56.291Z,1.68
2023-03-17T06:09:56.283Z,1.72
2023-03-17T06:10:56.280Z,1.77
2023-03-17T06:11:56.263Z,1.79
2023-03-17T06:12:56.220Z,1.86
2023-03-17T06:13:56.223Z,1.95
2023-03-17T06:14:56.795Z,1.87
2023-03-17T06:15:56.288Z,1.95
2023-03-17T06:16:56.392Z,1.91
2023-03-17T06:17:56.193Z,1.88
2023-03-17T06:18:56.150Z,1.79
2023-03-17T06:19:56.147Z,1.98
2023-03-17T06:20:56.158Z,1.93
2023-03-17T06:21:56.193Z,2.05
2023-03-17T06:23:04.477Z,1.99
2023-03-17T06:23:57.112Z,2.17
2023-03-17T06:24:56.166Z,2.09
2023-03-17T06:25:56.208Z,2.10
2023-03-17T06:26:56.108Z,2.14
2023-03-17T06:27:56.072Z,2.12
2023-03-17T06:28:56.067Z,2.21
2023-03-17T06:29:56.026Z,2.12
2023-03-17T06:30:56.043Z,2.23
2023-03-17T06:31:58.167Z,2.23
2023-03-17T06:32:57.132Z,2.25
2023-03-17T06:33:56.089Z,2.27
2023-03-17T06:34:56.012Z,2.25
2023-03-17T06:35:56.032Z,2.14
2023-03-17T06:36:55.955Z,2.18
2023-03-17T06:37:56.105Z,2.14
2023-03-17T06:38:56.021Z,2.10
2023-03-17T06:39:55.987Z,2.12
2023-03-17T06:40:55.942Z,2.03
2023-03-17T06:41:55.898Z,2.03
2023-03-17T06:42:55.892Z,2.06
2023-03-17T06:43:55.867Z,2.05
2023-03-17T06:44:55.874Z,2.05
2023-03-17T06:45:55.877Z,2.10
2023-03-17T06:46:55.933Z,2.16
2023-03-17T06:47:55.828Z,2.16
2023-03-17T06:48:55.850Z,1.99
2023-03-17T06:49:55.842Z,2.05
2023-03-17T06:50:55.812Z,2.06
2023-03-17T06:51:55.779Z,2.00
2023-03-17T06:52:55.828Z,1.98
2023-03-17T06:53:55.833Z,1.91
2023-03-17T06:54:55.861Z,1.91
2023-03-17T06:55:55.778Z,2.00
2023-03-17T06:56:55.879Z,2.07
2023-03-17T06:57:55.747Z,2.14
2023-03-17T06:58:55.763Z,2.14
2023-03-17T06:59:55.709Z,2.20
2023-03-17T07:00:55.685Z,2.27
2023-03-17T07:01:55.748Z,2.30
2023-03-17T07:02:55.783Z,2.34
2023-03-17T07:03:55.665Z,2.39
2023-03-17T07:04:55.658Z,2.48
2023-03-17T07:05:55.645Z,2.57
2023-03-17T07:06:55.656Z,2.60
2023-03-17T07:07:55.671Z,2.63
2023-03-17T07:08:55.624Z,2.77
2023-03-17T07:09:55.628Z,2.81
2023-03-17T07:10:55.601Z,2.90
2023-03-17T07:11:55.587Z,2.87
2023-03-17T07:12:55.550Z,3.05
2023-03-17T07:13:55.572Z,3.08
2023-03-17T07:14:55.538Z,3.13
2023-03-17T07:15:55.837Z,3.21
2023-03-17T07:16:55.526Z,3.18
2023-03-17T07:17:55.491Z,3.31
2023-03-17T07:18:55.491Z,3.42
2023-03-17T07:19:55.467Z,3.35
2023-03-17T07:20:55.605Z,3.45
2023-03-17T07:21:55.470Z,3.50
2023-03-17T07:22:55.453Z,3.51
2023-03-17T07:23:55.457Z,3.54
2023-03-17T07:24:55.429Z,3.54
2023-03-17T07:25:55.455Z,3.66
2023-03-17T07:26:55.384Z,3.72
2023-03-17T07:27:55.393Z,3.76
2023-03-17T07:28:55.391Z,3.76
2023-03-17T07:29:55.396Z,3.84
2023-03-17T07:30:55.369Z,3.86
2023-03-17T07:31:55.453Z,3.90
2023-03-17T07:32:55.411Z,4.00
2023-03-17T07:33:57.292Z,4.06
2023-03-17T07:34:55.330Z,4.08
2023-03-17T07:35:55.388Z,4.20
2023-03-17T07:36:55.339Z,4.16
2023-03-17T07:37:55.267Z,4.22
2023-03-17T07:38:55.281Z,4.14
2023-03-17T07:39:55.286Z,4.32
2023-03-17T07:40:55.281Z,4.29
2023-03-17T07:41:55.422Z,4.42
2023-03-17T07:42:55.263Z,4.41
2023-03-17T07:43:55.235Z,4.44
2023-03-17T07:44:55.184Z,4.40
2023-03-17T07:45:55.340Z,4.44
2023-03-17T07:46:55.178Z,4.48
2023-03-17T07:47:55.229Z,4.58
2023-03-17T07:48:55.169Z,4.63
2023-03-17T07:49:55.173Z,4.77
2023-03-17T07:50:55.204Z,4.78
2023-03-17T07:51:55.100Z,4.77
2023-03-17T07:52:55.118Z,4.86
2023-03-17T07:53:55.076Z,4.96
2023-03-17T07:54:55.243Z,4.89
2023-03-17T07:55:55.115Z,5.04
2023-03-17T07:56:55.339Z,5.07
2023-03-17T07:57:55.083Z,5.07
2023-03-17T07:58:55.103Z,5.10
2023-03-17T07:59:55.052Z,5.15
2023-03-17T08:00:55.009Z,5.20
2023-03-17T08:01:55.198Z,5.21
2023-03-17T08:03:08.985Z,5.22
2023-03-17T08:03:56.071Z,5.22
2023-03-17T08:04:54.997Z,5.28
2023-03-17T08:05:54.983Z,5.27
2023-03-17T08:06:54.988Z,5.30
2023-03-17T08:07:55.026Z,5.31
2023-03-17T08:08:54.979Z,5.48
2023-03-17T08:09:54.922Z,5.49
2023-03-17T08:10:54.922Z,5.43
2023-03-17T08:11:54.916Z,5.48
2023-03-17T08:12:54.874Z,5.48
2023-03-17T08:13:54.902Z,5.60
2023-03-17T08:14:54.869Z,5.64
2023-03-17T08:15:55.021Z,5.72
2023-03-17T08:16:54.911Z,5.78
2023-03-17T08:17:54.838Z,5.89
2023-03-17T08:18:54.844Z,5.86
2023-03-17T08:19:54.849Z,5.97
2023-03-17T08:20:54.791Z,6.00
2023-03-17T08:21:54.798Z,6.01
2023-03-17T08:22:54.776Z,5.97
2023-03-17T08:23:54.761Z,6.11
2023-03-17T08:24:54.868Z,6.17
2023-03-17T08:25:54.734Z,6.22
2023-03-17T08:26:54.766Z,6.30
2023-03-17T08:27:54.737Z,6.28
2023-03-17T08:28:54.781Z,6.31
2023-03-17T08:29:54.700Z,6.40
2023-03-17T08:30:55.052Z,6.52
2023-03-17T08:31:54.767Z,6.40
2023-03-17T08:32:54.846Z,6.56
2023-03-17T08:33:54.698Z,6.66
2023-03-17T08:34:54.617Z,6.61
2023-03-17T08:35:54.679Z,6.67
2023-03-17T08:36:54.696Z,6.61
2023-03-17T08:37:56.241Z,6.71
2023-03-17T08:38:54.636Z,6.77
2023-03-17T08:39:54.605Z,6.80
2023-03-17T08:40:54.555Z,6.77
2023-03-17T08:41:54.772Z,6.88
2023-03-17T08:42:54.577Z,6.84
2023-03-17T08:43:54.604Z,7.03
2023-03-17T08:44:54.541Z,6.95
2023-03-17T08:45:54.610Z,6.99
2023-03-17T08:46:54.801Z,7.12
2023-03-17T08:47:54.503Z,7.21
2023-03-17T08:48:55.243Z,7.17
2023-03-17T08:49:54.473Z,7.27
2023-03-17T08:50:54.539Z,7.27
2023-03-17T08:51:54.428Z,7.25
2023-03-17T08:52:54.745Z,7.25
2023-03-17T08:53:54.565Z,7.34
2023-03-17T08:54:54.416Z,7.53
2023-03-17T08:55:54.414Z,7.45
2023-03-17T08:56:54.426Z,7.48
2023-03-17T08:57:54.386Z,7.58
2023-03-17T08:58:54.375Z,7.72
2023-03-17T08:59:54.477Z,7.69
2023-03-17T09:00:54.386Z,7.71
2023-03-17T09:01:54.449Z,7.86
2023-03-17T09:02:54.396Z,7.95
2023-03-17T09:03:54.314Z,7.90
2023-03-17T09:04:54.328Z,7.97
2023-03-17T09:05:54.287Z,8.00
2023-03-17T09:07:04.324Z,8.04
2023-03-17T09:07:55.285Z,8.08
2023-03-17T09:08:54.245Z,8.12
2023-03-17T09:09:54.311Z,8.18
2023-03-17T09:10:54.270Z,8.15
2023-03-17T09:11:54.224Z,8.25
2023-03-17T09:12:54.221Z,8.22
2023-03-17T09:13:54.183Z,8.20
2023-03-17T09:14:54.302Z,8.23
2023-03-17T09:15:54.264Z,8.34
2023-03-17T09:16:54.156Z,8.33
2023-03-17T09:17:54.199Z,8.30
2023-03-17T09:18:54.127Z,8.44
2023-03-17T09:19:54.140Z,8.45
2023-03-17T09:20:54.110Z,8.55
2023-03-17T09:21:54.090Z,8.62
2023-03-17T09:22:54.097Z,8.68
2023-03-17T09:23:54.094Z,8.77
2023-03-17T09:24:54.136Z,8.83
2023-03-17T09:25:54.564Z,8.94
2023-03-17T09:26:54.311Z,8.91
2023-03-17T09:27:54.067Z,9.05
2023-03-17T09:28:54.032Z,9.11
2023-03-17T09:29:54.174Z,9.13
2023-03-17T09:30:54.031Z,9.10
2023-03-17T09:31:53.987Z,9.17
2023-03-17T09:32:54.105Z,9.23
2023-03-17T09:33:54.009Z,9.23
2023-03-17T09:34:54.065Z,9.29
2023-03-17T09:35:54.019Z,9.36
2023-03-17T09:36:53.923Z,9.36
2023-03-17T09:37:53.931Z,9.38
2023-03-17T09:38:53.935Z,9.43
2023-03-17T09:39:54.207Z,9.38
2023-03-17T09:40:53.959Z,9.53
2023-03-17T09:41:53.958Z,9.42
2023-03-17T09:42:53.876Z,9.57
2023-03-17T09:43:53.869Z,9.61
2023-03-17T09:44:54.241Z,9.58
2023-03-17T09:45:53.834Z,9.64
2023-03-17T09:46:53.933Z,9.66
2023-03-17T09:47:53.805Z,9.74
2023-03-17T09:48:53.798Z,9.72
2023-03-17T09:49:53.826Z,9.78
2023-03-17T09:50:53.777Z,9.74
2023-03-17T09:51:53.792Z,9.86
2023-03-17T09:52:53.771Z,9.89
2023-03-17T09:53:53.738Z,9.91
2023-03-17T09:54:53.731Z,9.94
2023-03-17T09:55:53.806Z,9.96
2023-03-17T09:56:53.846Z,9.97
2023-03-17T09:57:53.723Z,10.05
2023-03-17T09:58:53.683Z,10.02
2023-03-17T09:59:53.732Z,9.97
2023-03-17T10:00:53.677Z,10.05
2023-03-17T10:01:53.749Z,10.07
2023-03-17T10:02:53.794Z,10.08
2023-03-17T10:03:53.663Z,10.14
2023-03-17T10:04:53.671Z,10.20
2023-03-17T10:05:53.627Z,10.29
2023-03-17T10:06:53.604Z,10.25
2023-03-17T10:07:53.622Z,10.30
2023-03-17T10:08:53.620Z,10.41
2023-03-17T10:09:53.552Z,10.42
2023-03-17T10:10:53.544Z,10.45
2023-03-17T10:11:53.545Z,10.48
2023-03-17T10:12:53.543Z,10.55
2023-03-17T10:13:53.516Z,10.55
2023-03-17T10:14:53.586Z,10.60
2023-03-17T10:15:53.572Z,10.78
2023-03-17T10:16:53.514Z,10.73
2023-03-17T10:17:53.499Z,10.79
2023-03-17T10:18:53.503Z,10.92
2023-03-17T10:19:53.458Z,10.84
2023-03-17T10:20:53.468Z,10.92
2023-03-17T10:21:53.488Z,11.02
2023-03-17T10:22:53.485Z,11.00
2023-03-17T10:23:53.408Z,11.09
2023-03-17T10:24:53.383Z,11.25
2023-03-17T10:25:53.444Z,11.21
2023-03-17T10:26:53.413Z,11.25
2023-03-17T10:27:53.403Z,11.33
2023-03-17T10:28:53.352Z,11.37
2023-03-17T10:29:53.359Z,11.40
2023-03-17T10:30:53.489Z,11.35
2023-03-17T10:31:53.437Z,11.40
2023-03-17T10:32:53.362Z,11.39
2023-03-17T10:33:53.362Z,11.46
2023-03-17T10:34:53.295Z,11.47
2023-03-17T10:35:53.336Z,11.42
2023-03-17T10:36:53.317Z,11.52
2023-03-17T10:38:04.329Z,11.52
2023-03-17T10:38:54.379Z,11.64
2023-03-17T10:39:53.298Z,11.55
2023-03-17T10:40:53.254Z,11.69
2023-03-17T10:41:53.251Z,11.69
2023-03-17T10:42:53.272Z,11.67
2023-03-17T10:43:53.264Z,11.72
2023-03-17T10:44:53.280Z,11.73
2023-03-17T10:45:53.148Z,11.73
2023-03-17T10:46:53.283Z,11.75
2023-03-17T10:47:53.155Z,11.72
2023-03-17T10:48:53.134Z,11.80
2023-03-17T10:49:53.102Z,11.85
2023-03-17T10:50:54.425Z,11.91
2023-03-17T10:51:53.091Z,11.94
2023-03-17T10:52:53.120Z,11.98
2023-03-17T10:53:53.151Z,11.96
2023-03-17T10:54:53.096Z,12.01
2023-03-17T10:55:53.112Z,12.01
2023-03-17T10:56:53.044Z,12.02
2023-03-17T10:57:53.052Z,12.04
2023-03-17T10:58:53.021Z,12.16
2023-03-17T10:59:53.248Z,12.16
2023-03-17T11:00:53.099Z,12.19
2023-03-17T11:01:53.037Z,12.21
2023-03-17T11:02:53.022Z,12.24
2023-03-17T11:03:53.054Z,12.28
2023-03-17T11:04:52.967Z,12.35
2023-03-17T11:05:52.963Z,12.37
2023-03-17T11:06:52.913Z,12.49
2023-03-17T11:07:52.920Z,12.46
2023-03-17T11:08:52.894Z,12.42
2023-03-17T11:09:52.949Z,12.52
2023-03-17T11:10:52.883Z,12.62
2023-03-17T11:11:52.946Z,12.62
2023-03-17T11:12:52.935Z,12.65
2023-03-17T11:13:52.857Z,12.75
2023-03-17T11:14:52.855Z,12.85
2023-03-17T11:15:53.009Z,12.86
2023-03-17T11:16:52.811Z,13.01
2023-03-17T11:17:52.797Z,12.96
2023-03-17T11:18:52.796Z,13.08
2023-03-17T11:19:52.790Z,13.04
2023-03-17T11:20:52.796Z,13.14
2023-03-17T11:21:52.801Z,13.04
2023-03-17T11:22:52.764Z,13.15
2023-03-17T11:23:52.721Z,13.19
2023-03-17T11:24:52.730Z,13.12
2023-03-17T11:25:52.757Z,13.20
2023-03-17T11:26:52.702Z,13.12
2023-03-17T11:27:52.688Z,13.19
2023-03-17T11:28:52.695Z,13.28
2023-03-17T11:29:52.743Z,13.41
2023-03-17T11:30:52.674Z,13.48
2023-03-17T11:31:52.776Z,13.45
2023-03-17T11:32:52.686Z,13.52
2023-03-17T11:33:52.627Z,13.51
2023-03-17T11:34:52.593Z,13.52
2023-03-17T11:35:52.650Z,13.57
2023-03-17T11:36:53.565Z,13.55
2023-03-17T11:37:52.611Z,13.62
2023-03-17T11:38:52.586Z,13.64
2023-03-17T11:39:52.563Z,13.69
2023-03-17T11:40:52.532Z,13.64
2023-03-17T11:41:52.558Z,13.63
2023-03-17T11:42:52.533Z,13.64
2023-03-17T11:43:52.560Z,13.73
2023-03-17T11:44:52.494Z,13.79
2023-03-17T11:45:52.567Z,13.69
2023-03-17T11:46:52.480Z,13.62
2023-03-17T11:47:52.481Z,13.62
2023-03-17T11:48:52.481Z,13.60
2023-03-17T11:49:52.497Z,13.59
2023-03-17T11:50:52.437Z,13.60
2023-03-17T11:51:52.407Z,13.66
2023-03-17T11:52:52.410Z,13.62
2023-03-17T11:53:52.873Z,13.67
2023-03-17T11:54:54.187Z,13.64
2023-03-17T11:55:52.364Z,13.77
2023-03-17T11:56:52.379Z,13.81
2023-03-17T11:57:52.388Z,13.85
2023-03-17T11:58:52.347Z,13.79
2023-03-17T11:59:52.350Z,13.91
2023-03-17T12:00:52.307Z,13.89
2023-03-17T12:01:52.312Z,13.91
2023-03-17T12:02:52.319Z,13.95
2023-03-17T12:03:52.459Z,13.92
2023-03-17T12:04:52.320Z,13.89
2023-03-17T12:05:52.255Z,13.84
2023-03-17T12:06:52.243Z,13.87
2023-03-17T12:07:52.242Z,14.00
2023-03-17T12:08:52.255Z,13.99
2023-03-17T12:09:52.214Z,13.92
2023-03-17T12:10:52.231Z,14.00
2023-03-17T12:11:52.171Z,14.02
2023-03-17T12:12:52.177Z,14.02
2023-03-17T12:13:52.214Z,14.00
2023-03-17T12:14:52.134Z,14.00
2023-03-17T12:15:52.167Z,14.02
2023-03-17T12:16:52.110Z,14.09
2023-03-17T12:17:52.144Z,14.15
2023-03-17T12:18:52.315Z,14.15
2023-03-17T12:19:52.081Z,14.18
2023-03-17T12:20:52.080Z,14.15
2023-03-17T12:21:52.096Z,14.21
2023-03-17T12:22:52.048Z,14.24
2023-03-17T12:23:52.051Z,14.29
2023-03-17T12:24:52.146Z,14.43
2023-03-17T12:25:52.019Z,14.40
2023-03-17T12:26:52.015Z,14.52
2023-03-17T12:27:52.065Z,14.45
2023-03-17T12:28:51.982Z,14.47
2023-03-17T12:29:51.981Z,14.54
2023-03-17T12:30:52.071Z,14.52
2023-03-17T12:31:51.960Z,14.62
2023-03-17T12:32:51.984Z,14.62
2023-03-17T12:33:52.021Z,14.61
2023-03-17T12:34:51.933Z,14.57
2023-03-17T12:35:51.997Z,14.75
2023-03-17T12:36:51.889Z,14.73
2023-03-17T12:37:51.894Z,14.89
2023-03-17T12:38:51.906Z,14.83
2023-03-17T12:39:51.917Z,14.94
2023-03-17T12:40:51.858Z,14.89
2023-03-17T12:41:51.830Z,14.95
2023-03-17T12:42:51.833Z,15.06
2023-03-17T12:43:51.842Z,15.06
2023-03-17T12:44:51.789Z,15.02
2023-03-17T12:45:54.216Z,15.16
2023-03-17T12:46:51.932Z,15.17
2023-03-17T12:47:51.771Z,15.23
2023-03-17T12:48:51.769Z,15.23
2023-03-17T12:49:51.779Z,15.17
2023-03-17T12:50:51.788Z,15.21
2023-03-17T12:51:51.780Z,15.21
2023-03-17T12:52:51.736Z,15.36
2023-03-17T12:53:51.902Z,15.32
2023-03-17T12:54:51.724Z,15.39
2023-03-17T12:55:51.714Z,15.46
2023-03-17T12:56:59.820Z,15.38
2023-03-17T12:57:51.666Z,15.32
2023-03-17T12:58:51.647Z,15.44
2023-03-17T12:59:51.642Z,15.41
2023-03-17T13:00:51.613Z,15.41
2023-03-17T13:01:51.744Z,15.46
2023-03-17T13:02:51.723Z,15.49
2023-03-17T13:03:51.575Z,15.53
2023-03-17T13:04:51.570Z,15.60
2023-03-17T13:05:51.591Z,15.60
2023-03-17T13:06:51.545Z,15.65
2023-03-17T13:07:51.553Z,15.65
2023-03-17T13:08:51.542Z,15.71
2023-03-17T13:09:51.516Z,15.83
2023-03-17T13:10:51.523Z,15.86
2023-03-17T13:11:51.489Z,15.87